sensor_id;sensor_type;location;lat;lon;timestamp;pressure;altitude;pressure_sealevel;temperature;humidity
73981;BME280;62348;51.412;5.436;2023-02-26T00:02:23;101671.78;;;-0.12;74.87
73981;BME280;62348;51.412;5.436;2023-02-26T00:04:48;101676.63;;;-0.15;74.82
73981;BME280;62348;51.412;5.436;2023-02-26T00:07:14;101678.78;;;-0.19;75.10
73981;BME280;62348;51.412;5.436;2023-02-26T00:09:39;101677.97;;;-0.20;75.30
73981;BME280;62348;51.412;5.436;2023-02-26T00:12:05;101678.13;;;-0.21;75.10
73981;BME280;62348;51.412;5.436;2023-02-26T00:14:30;101685.63;;;-0.25;74.98
73981;BME280;62348;51.412;5.436;2023-02-26T00:19:30;101697.41;;;-0.27;75.97
73981;BME280;62348;51.412;5.436;2023-02-26T00:21:56;101708.19;;;-0.29;76.16
73981;BME280;62348;51.412;5.436;2023-02-26T00:24:21;101705.53;;;-0.29;75.96
73981;BME280;62348;51.412;5.436;2023-02-26T00:26:47;101697.56;;;-0.29;76.05
73981;BME280;62348;51.412;5.436;2023-02-26T00:29:13;101715.03;;;-0.26;76.70
73981;BME280;62348;51.412;5.436;2023-02-26T00:31:38;101711.72;;;-0.28;76.27
73981;BME280;62348;51.412;5.436;2023-02-26T00:34:04;101713.34;;;-0.27;76.50
73981;BME280;62348;51.412;5.436;2023-02-26T00:41:44;101712.69;;;-0.21;76.39
73981;BME280;62348;51.412;5.436;2023-02-26T00:44:09;101720.31;;;-0.18;77.51
73981;BME280;62348;51.412;5.436;2023-02-26T00:51:48;101723.47;;;-0.14;77.01
73981;BME280;62348;51.412;5.436;2023-02-26T00:54:24;101726.47;;;-0.09;77.33
73981;BME280;62348;51.412;5.436;2023-02-26T00:56:51;101729.78;;;-0.07;78.09
73981;BME280;62348;51.412;5.436;2023-02-26T00:59:17;101733.28;;;-0.07;77.60
73981;BME280;62348;51.412;5.436;2023-02-26T01:01:43;101726.13;;;-0.06;77.62
73981;BME280;62348;51.412;5.436;2023-02-26T01:04:10;101725.78;;;-0.03;77.20
73981;BME280;62348;51.412;5.436;2023-02-26T01:06:41;101726.78;;;-0.04;77.14
73981;BME280;62348;51.412;5.436;2023-02-26T01:11:34;101736.09;;;0.00;78.24
73981;BME280;62348;51.412;5.436;2023-02-26T01:14:01;101736.91;;;0.01;77.60
73981;BME280;62348;51.412;5.436;2023-02-26T01:16:29;101743.06;;;0.01;77.58
73981;BME280;62348;51.412;5.436;2023-02-26T01:19:48;101737.59;;;0.03;77.00
73981;BME280;62348;51.412;5.436;2023-02-26T01:22:38;101748.03;;;-0.04;77.05
73981;BME280;62348;51.412;5.436;2023-02-26T01:25:13;101747.38;;;-0.06;77.31
73981;BME280;62348;51.412;5.436;2023-02-26T01:27:40;101746.72;;;-0.08;77.41
73981;BME280;62348;51.412;5.436;2023-02-26T01:30:08;101749.06;;;-0.05;77.49
73981;BME280;62348;51.412;5.436;2023-02-26T01:38:08;101740.72;;;-0.02;77.41
73981;BME280;62348;51.412;5.436;2023-02-26T01:43:11;101748.91;;;-0.04;77.51
73981;BME280;62348;51.412;5.436;2023-02-26T01:46:01;101745.22;;;-0.03;77.67
73981;BME280;62348;51.412;5.436;2023-02-26T01:48:47;101746.91;;;-0.02;77.88
73981;BME280;62348;51.412;5.436;2023-02-26T01:51:12;101756.88;;;-0.04;77.46
73981;BME280;62348;51.412;5.436;2023-02-26T01:53:38;101759.34;;;-0.02;77.65
73981;BME280;62348;51.412;5.436;2023-02-26T01:56:10;101760.34;;;-0.03;77.81
73981;BME280;62348;51.412;5.436;2023-02-26T01:58:37;101757.84;;;-0.05;77.75
73981;BME280;62348;51.412;5.436;2023-02-26T02:01:03;101754.88;;;-0.10;77.79
73981;BME280;62348;51.412;5.436;2023-02-26T02:03:33;101755.53;;;-0.08;77.89
73981;BME280;62348;51.412;5.436;2023-02-26T02:06:03;101757.53;;;-0.10;78.32
73981;BME280;62348;51.412;5.436;2023-02-26T02:08:31;101770.16;;;-0.12;77.91
73981;BME280;62348;51.412;5.436;2023-02-26T02:11:00;101772.16;;;-0.14;78.24
73981;BME280;62348;51.412;5.436;2023-02-26T02:16:16;101772.81;;;-0.12;77.92
73981;BME280;62348;51.412;5.436;2023-02-26T02:19:01;101786.97;;;-0.11;78.08
73981;BME280;62348;51.412;5.436;2023-02-26T02:24:20;101789.63;;;-0.11;78.10
73981;BME280;62348;51.412;5.436;2023-02-26T02:32:19;101796.25;;;-0.15;77.86
73981;BME280;62348;51.412;5.436;2023-02-26T02:34:53;101806.72;;;-0.14;77.99
73981;BME280;62348;51.412;5.436;2023-02-26T02:37:38;101804.06;;;-0.14;77.62
73981;BME280;62348;51.412;5.436;2023-02-26T02:40:19;101802.91;;;-0.20;77.39
73981;BME280;62348;51.412;5.436;2023-02-26T02:43:13;101799.09;;;-0.17;77.40
73981;BME280;62348;51.412;5.436;2023-02-26T02:45:59;101809.88;;;-0.18;77.75
73981;BME280;62348;51.412;5.436;2023-02-26T02:48:49;101815.19;;;-0.18;77.40
73981;BME280;62348;51.412;5.436;2023-02-26T02:51:22;101816.53;;;-0.14;76.61
73981;BME280;62348;51.412;5.436;2023-02-26T02:53:50;101817.19;;;-0.21;76.81
73981;BME280;62348;51.412;5.436;2023-02-26T02:56:44;101819.00;;;-0.21;76.95
73981;BME280;62348;51.412;5.436;2023-02-26T03:01:54;101835.97;;;-0.22;76.22
73981;BME280;62348;51.412;5.436;2023-02-26T03:04:21;101826.66;;;-0.26;76.12
73981;BME280;62348;51.412;5.436;2023-02-26T03:06:46;101831.13;;;-0.27;76.39
73981;BME280;62348;51.412;5.436;2023-02-26T03:09:14;101838.28;;;-0.27;75.94
73981;BME280;62348;51.412;5.436;2023-02-26T03:11:40;101838.63;;;-0.30;75.75
73981;BME280;62348;51.412;5.436;2023-02-26T03:14:06;101836.78;;;-0.30;75.44
73981;BME280;62348;51.412;5.436;2023-02-26T03:22:14;101844.59;;;-0.28;73.98
73981;BME280;62348;51.412;5.436;2023-02-26T03:32:50;101847.75;;;-0.33;73.88
73981;BME280;62348;51.412;5.436;2023-02-26T03:35:23;101855.88;;;-0.34;73.82
73981;BME280;62348;51.412;5.436;2023-02-26T03:37:55;101847.91;;;-0.34;74.05
73981;BME280;62348;51.412;5.436;2023-02-26T03:41:08;101859.84;;;-0.38;73.95
73981;BME280;62348;51.412;5.436;2023-02-26T03:43:22;101860.00;;;-0.40;73.94
73981;BME280;62348;51.412;5.436;2023-02-26T03:45:52;101867.97;;;-0.40;74.12
73981;BME280;62348;51.412;5.436;2023-02-26T03:48:22;101869.31;;;-0.44;74.23
73981;BME280;62348;51.412;5.436;2023-02-26T03:50:52;101865.16;;;-0.47;74.34
73981;BME280;62348;51.412;5.436;2023-02-26T03:53:29;101873.13;;;-0.47;74.53
73981;BME280;62348;51.412;5.436;2023-02-26T03:56:21;101878.28;;;-0.45;74.66
73981;BME280;62348;51.412;5.436;2023-02-26T03:58:50;101885.91;;;-0.50;74.49
73981;BME280;62348;51.412;5.436;2023-02-26T04:01:21;101884.41;;;-0.53;74.54
73981;BME280;62348;51.412;5.436;2023-02-26T04:04:01;101891.53;;;-0.53;74.81
73981;BME280;62348;51.412;5.436;2023-02-26T04:06:28;101895.19;;;-0.54;74.51
73981;BME280;62348;51.412;5.436;2023-02-26T04:08:55;101895.50;;;-0.57;74.74
73981;BME280;62348;51.412;5.436;2023-02-26T04:11:21;101895.66;;;-0.59;75.16
73981;BME280;62348;51.412;5.436;2023-02-26T04:13:47;101902.50;;;-0.56;74.72
73981;BME280;62348;51.412;5.436;2023-02-26T04:16:14;101899.19;;;-0.58;75.15
73981;BME280;62348;51.412;5.436;2023-02-26T04:18:40;101900.97;;;-0.59;74.88
73981;BME280;62348;51.412;5.436;2023-02-26T04:21:10;101894.34;;;-0.63;75.14
73981;BME280;62348;51.412;5.436;2023-02-26T04:23:36;101901.31;;;-0.62;74.76
73981;BME280;62348;51.412;5.436;2023-02-26T04:26:01;101899.97;;;-0.66;75.20
73981;BME280;62348;51.412;5.436;2023-02-26T04:28:26;101906.44;;;-0.69;75.24
73981;BME280;62348;51.412;5.436;2023-02-26T04:30:52;101908.41;;;-0.71;75.30
73981;BME280;62348;51.412;5.436;2023-02-26T04:33:17;101920.03;;;-0.72;75.18
73981;BME280;62348;51.412;5.436;2023-02-26T04:35:43;101917.53;;;-0.73;75.12
73981;BME280;62348;51.412;5.436;2023-02-26T04:38:08;101924.34;;;-0.71;75.11
73981;BME280;62348;51.412;5.436;2023-02-26T04:40:33;101923.69;;;-0.73;75.20
73981;BME280;62348;51.412;5.436;2023-02-26T04:42:59;101926.34;;;-0.73;74.86
73981;BME280;62348;51.412;5.436;2023-02-26T04:45:24;101931.66;;;-0.73;74.60
73981;BME280;62348;51.412;5.436;2023-02-26T04:47:50;101927.50;;;-0.75;74.85
73981;BME280;62348;51.412;5.436;2023-02-26T04:50:16;101931.13;;;-0.76;74.91
73981;BME280;62348;51.412;5.436;2023-02-26T04:52:41;101939.44;;;-0.80;74.59
73981;BME280;62348;51.412;5.436;2023-02-26T04:55:07;101931.63;;;-0.81;74.95
73981;BME280;62348;51.412;5.436;2023-02-26T04:57:32;101931.78;;;-0.83;74.53
73981;BME280;62348;51.412;5.436;2023-02-26T04:59:58;101949.03;;;-0.87;74.62
73981;BME280;62348;51.412;5.436;2023-02-26T05:02:23;101950.00;;;-0.88;74.56
73981;BME280;62348;51.412;5.436;2023-02-26T05:04:49;101959.13;;;-0.90;74.66
73981;BME280;62348;51.412;5.436;2023-02-26T05:07:15;101958.44;;;-0.92;74.77
73981;BME280;62348;51.412;5.436;2023-02-26T05:09:40;101955.94;;;-0.94;74.57
73981;BME280;62348;51.412;5.436;2023-02-26T05:12:05;101963.25;;;-0.96;74.43
73981;BME280;62348;51.412;5.436;2023-02-26T05:14:31;101960.75;;;-0.98;74.75
73981;BME280;62348;51.412;5.436;2023-02-26T05:16:56;101960.75;;;-0.98;74.52
73981;BME280;62348;51.412;5.436;2023-02-26T05:19:22;101965.38;;;-1.00;74.39
73981;BME280;62348;51.412;5.436;2023-02-26T05:21:47;101969.19;;;-1.02;74.31
73981;BME280;62348;51.412;5.436;2023-02-26T05:24:13;101967.66;;;-1.05;73.98
73981;BME280;62348;51.412;5.436;2023-02-26T05:26:39;101969.19;;;-1.02;74.02
73981;BME280;62348;51.412;5.436;2023-02-26T05:29:04;101971.31;;;-1.06;73.50
73981;BME280;62348;51.412;5.436;2023-02-26T05:31:31;101976.78;;;-1.07;73.55
73981;BME280;62348;51.412;5.436;2023-02-26T05:33:56;101981.41;;;-1.09;73.30
73981;BME280;62348;51.412;5.436;2023-02-26T05:36:21;101992.03;;;-1.09;73.07
73981;BME280;62348;51.412;5.436;2023-02-26T05:38:47;101978.91;;;-1.11;73.12
73981;BME280;62348;51.412;5.436;2023-02-26T05:41:12;101990.34;;;-1.10;73.18
73981;BME280;62348;51.412;5.436;2023-02-26T05:43:37;101989.66;;;-1.12;73.24
73981;BME280;62348;51.412;5.436;2023-02-26T05:46:03;101983.25;;;-1.10;72.96
73981;BME280;62348;51.412;5.436;2023-02-26T05:48:29;101988.38;;;-1.08;71.89
73981;BME280;62348;51.412;5.436;2023-02-26T05:50:54;101991.19;;;-1.10;72.11
73981;BME280;62348;51.412;5.436;2023-02-26T05:53:20;101991.34;;;-1.11;72.03
73981;BME280;62348;51.412;5.436;2023-02-26T05:55:45;101996.66;;;-1.11;71.93
73981;BME280;62348;51.412;5.436;2023-02-26T05:58:11;102004.91;;;-1.14;71.76
73981;BME280;62348;51.412;5.436;2023-02-26T06:00:37;102010.09;;;-1.13;71.71
73981;BME280;62348;51.412;5.436;2023-02-26T06:03:02;102011.06;;;-1.14;72.10
73981;BME280;62348;51.412;5.436;2023-02-26T06:05:28;102015.53;;;-1.14;71.45
73981;BME280;62348;51.412;5.436;2023-02-26T06:07:53;102016.38;;;-1.14;71.40
73981;BME280;62348;51.412;5.436;2023-02-26T06:10:18;102021.19;;;-1.17;71.56
73981;BME280;62348;51.412;5.436;2023-02-26T06:12:44;102025.47;;;-1.16;71.53
73981;BME280;62348;51.412;5.436;2023-02-26T06:15:10;102025.63;;;-1.18;71.85
73981;BME280;62348;51.412;5.436;2023-02-26T06:17:36;102032.09;;;-1.21;71.65
73981;BME280;62348;51.412;5.436;2023-02-26T06:20:02;102036.41;;;-1.20;71.75
73981;BME280;62348;51.412;5.436;2023-02-26T06:22:28;102042.56;;;-1.19;71.34
73981;BME280;62348;51.412;5.436;2023-02-26T06:24:54;102047.72;;;-1.17;71.33
73981;BME280;62348;51.412;5.436;2023-02-26T06:27:20;102051.50;;;-1.20;71.33
73981;BME280;62348;51.412;5.436;2023-02-26T06:29:46;102053.19;;;-1.19;71.18
73981;BME280;62348;51.412;5.436;2023-02-26T06:32:11;102062.13;;;-1.20;70.77
73981;BME280;62348;51.412;5.436;2023-02-26T06:34:37;102063.56;;;-1.26;70.92
73981;BME280;62348;51.412;5.436;2023-02-26T06:37:02;102065.91;;;-1.23;71.08
73981;BME280;62348;51.412;5.436;2023-02-26T06:39:27;102071.38;;;-1.24;71.15
73981;BME280;62348;51.412;5.436;2023-02-26T06:41:53;102069.69;;;-1.25;71.21
73981;BME280;62348;51.412;5.436;2023-02-26T06:44:18;102082.81;;;-1.24;71.10
73981;BME280;62348;51.412;5.436;2023-02-26T06:46:44;102079.19;;;-1.23;71.21
73981;BME280;62348;51.412;5.436;2023-02-26T06:49:09;102088.78;;;-1.22;71.00
73981;BME280;62348;51.412;5.436;2023-02-26T06:51:34;102098.59;;;-1.22;70.84
73981;BME280;62348;51.412;5.436;2023-02-26T06:54:00;102099.13;;;-1.19;70.92
73981;BME280;62348;51.412;5.436;2023-02-26T06:56:26;102103.47;;;-1.17;71.24
73981;BME280;62348;51.412;5.436;2023-02-26T06:58:51;102102.59;;;-1.18;70.95
73981;BME280;62348;51.412;5.436;2023-02-26T07:01:17;102111.72;;;-1.21;70.85
73981;BME280;62348;51.412;5.436;2023-02-26T07:03:42;102117.84;;;-1.20;71.01
73981;BME280;62348;51.412;5.436;2023-02-26T07:06:10;102122.47;;;-1.22;71.14
73981;BME280;62348;51.412;5.436;2023-02-26T07:08:36;102128.47;;;-1.20;71.11
73981;BME280;62348;51.412;5.436;2023-02-26T07:11:02;102133.78;;;-1.20;71.20
73981;BME280;62348;51.412;5.436;2023-02-26T07:13:27;102137.25;;;-1.20;71.62
73981;BME280;62348;51.412;5.436;2023-02-26T07:15:53;102135.13;;;-1.16;71.39
73981;BME280;62348;51.412;5.436;2023-02-26T07:18:18;102141.97;;;-1.13;71.15
73981;BME280;62348;51.412;5.436;2023-02-26T07:20:44;102141.84;;;-1.12;71.56
73981;BME280;62348;51.412;5.436;2023-02-26T07:23:10;102148.66;;;-1.09;71.22
73981;BME280;62348;51.412;5.436;2023-02-26T07:25:36;102155.47;;;-1.07;71.48
73981;BME280;62348;51.412;5.436;2023-02-26T07:28:02;102162.13;;;-1.03;70.71
73981;BME280;62348;51.412;5.436;2023-02-26T07:30:28;102168.84;;;-0.99;70.76
73981;BME280;62348;51.412;5.436;2023-02-26T07:32:53;102167.53;;;-0.94;70.99
73981;BME280;62348;51.412;5.436;2023-02-26T07:35:19;102178.53;;;-0.89;71.71
73981;BME280;62348;51.412;5.436;2023-02-26T07:37:44;102177.94;;;-0.83;70.78
73981;BME280;62348;51.412;5.436;2023-02-26T07:40:10;102192.56;;;-0.79;70.85
73981;BME280;62348;51.412;5.436;2023-02-26T07:42:36;102192.63;;;-0.71;70.30
73981;BME280;62348;51.412;5.436;2023-02-26T07:45:02;102194.16;;;-0.68;70.19
73981;BME280;62348;51.412;5.436;2023-02-26T07:47:27;102192.69;;;-0.63;70.13
73981;BME280;62348;51.412;5.436;2023-02-26T07:49:55;102200.22;;;-0.58;69.58
73981;BME280;62348;51.412;5.436;2023-02-26T07:52:20;102197.75;;;-0.51;69.27
73981;BME280;62348;51.412;5.436;2023-02-26T07:54:46;102203.84;;;-0.41;69.22
73981;BME280;62348;51.412;5.436;2023-02-26T07:57:11;102207.38;;;-0.32;69.49
73981;BME280;62348;51.412;5.436;2023-02-26T07:59:36;102201.50;;;-0.18;68.36
73981;BME280;62348;51.412;5.436;2023-02-26T08:02:02;102219.31;;;-0.10;68.95
73981;BME280;62348;51.412;5.436;2023-02-26T08:04:28;102218.25;;;0.01;68.51
73981;BME280;62348;51.412;5.436;2023-02-26T08:06:54;102217.13;;;0.11;67.75
73981;BME280;62348;51.412;5.436;2023-02-26T08:09:21;102209.50;;;0.16;67.38
73981;BME280;62348;51.412;5.436;2023-02-26T08:11:46;102211.06;;;0.27;67.28
73981;BME280;62348;51.412;5.436;2023-02-26T08:14:12;102213.91;;;0.34;67.05
73981;BME280;62348;51.412;5.436;2023-02-26T08:16:38;102212.44;;;0.39;66.64
73981;BME280;62348;51.412;5.436;2023-02-26T08:19:03;102218.78;;;0.47;67.28
73981;BME280;62348;51.412;5.436;2023-02-26T08:21:29;102219.53;;;0.57;67.19
73981;BME280;62348;51.412;5.436;2023-02-26T08:23:55;102218.53;;;0.66;66.47
73981;BME280;62348;51.412;5.436;2023-02-26T08:26:20;102221.06;;;0.76;66.42
73981;BME280;62348;51.412;5.436;2023-02-26T08:28:46;102220.59;;;0.89;65.79
73981;BME280;62348;51.412;5.436;2023-02-26T08:31:13;102226.13;;;0.95;65.43
73981;BME280;62348;51.412;5.436;2023-02-26T08:33:39;102237.28;;;0.99;65.97
73981;BME280;62348;51.412;5.436;2023-02-26T08:36:07;102238.09;;;1.08;65.46
73981;BME280;62348;51.412;5.436;2023-02-26T08:38:33;102235.63;;;1.14;65.27
73981;BME280;62348;51.412;5.436;2023-02-26T08:40:59;102237.16;;;1.25;65.07
73981;BME280;62348;51.412;5.436;2023-02-26T08:43:25;102243.81;;;1.29;64.97
73981;BME280;62348;51.412;5.436;2023-02-26T08:45:52;102234.16;;;1.36;65.39
73981;BME280;62348;51.412;5.436;2023-02-26T08:48:18;102243.66;;;1.47;65.08
73981;BME280;62348;51.412;5.436;2023-02-26T08:50:44;102247.00;;;1.58;64.63
73981;BME280;62348;51.412;5.436;2023-02-26T08:53:09;102252.34;;;1.66;63.60
73981;BME280;62348;51.412;5.436;2023-02-26T08:55:35;102261.00;;;1.68;63.82
73981;BME280;62348;51.412;5.436;2023-02-26T08:58:00;102270.31;;;1.72;63.77
73981;BME280;62348;51.412;5.436;2023-02-26T09:00:25;102267.84;;;1.79;64.01
73981;BME280;62348;51.412;5.436;2023-02-26T09:02:51;102272.16;;;1.88;64.96
73981;BME280;62348;51.412;5.436;2023-02-26T09:05:17;102269.13;;;1.99;64.53
73981;BME280;62348;51.412;5.436;2023-02-26T09:07:43;102277.31;;;2.06;63.07
73981;BME280;62348;51.412;5.436;2023-02-26T09:10:09;102286.78;;;2.08;63.45
73981;BME280;62348;51.412;5.436;2023-02-26T09:12:35;102278.78;;;2.08;62.62
73981;BME280;62348;51.412;5.436;2023-02-26T09:15:02;102289.47;;;2.17;63.90
73981;BME280;62348;51.412;5.436;2023-02-26T09:17:28;102291.13;;;2.26;63.59
73981;BME280;62348;51.412;5.436;2023-02-26T09:19:54;102294.09;;;2.31;62.91
73981;BME280;62348;51.412;5.436;2023-02-26T09:22:19;102300.25;;;2.31;63.22
73981;BME280;62348;51.412;5.436;2023-02-26T09:24:45;102311.09;;;2.38;63.14
73981;BME280;62348;51.412;5.436;2023-02-26T09:27:10;102295.25;;;2.37;62.44
73981;BME280;62348;51.412;5.436;2023-02-26T09:29:35;102302.28;;;2.38;62.53
73981;BME280;62348;51.412;5.436;2023-02-26T09:32:02;102301.09;;;2.40;62.43
73981;BME280;62348;51.412;5.436;2023-02-26T09:34:29;102307.09;;;2.42;61.83
73981;BME280;62348;51.412;5.436;2023-02-26T09:36:54;102313.09;;;2.44;62.03
73981;BME280;62348;51.412;5.436;2023-02-26T09:39:20;102316.41;;;2.46;61.29
73981;BME280;62348;51.412;5.436;2023-02-26T09:41:54;102316.25;;;2.48;61.29
73981;BME280;62348;51.412;5.436;2023-02-26T09:44:26;102322.59;;;2.47;62.39
73981;BME280;62348;51.412;5.436;2023-02-26T09:49:35;102333.41;;;2.53;61.32
73981;BME280;62348;51.412;5.436;2023-02-26T09:52:29;102334.56;;;2.59;62.64
73981;BME280;62348;51.412;5.436;2023-02-26T09:55:02;102340.75;;;2.60;60.76
73981;BME280;62348;51.412;5.436;2023-02-26T09:57:33;102340.41;;;2.63;60.98
73981;BME280;62348;51.412;5.436;2023-02-26T10:00:00;102345.41;;;2.66;60.30
73981;BME280;62348;51.412;5.436;2023-02-26T10:07:54;102352.09;;;2.70;60.95
73981;BME280;62348;51.412;5.436;2023-02-26T10:10:50;102357.91;;;2.65;60.46
73981;BME280;62348;51.412;5.436;2023-02-26T10:13:48;102363.63;;;2.62;60.64
73981;BME280;62348;51.412;5.436;2023-02-26T10:16:20;102369.31;;;2.51;59.16
73981;BME280;62348;51.412;5.436;2023-02-26T10:18:58;102368.84;;;2.39;60.40
73981;BME280;62348;51.412;5.436;2023-02-26T10:23:58;102374.50;;;2.36;57.95
73981;BME280;62348;51.412;5.436;2023-02-26T10:26:40;102366.16;;;2.31;58.01
73981;BME280;62348;51.412;5.436;2023-02-26T10:31:42;102377.84;;;2.22;59.21
73981;BME280;62348;51.412;5.436;2023-02-26T10:34:20;102375.38;;;2.20;58.78
73981;BME280;62348;51.412;5.436;2023-02-26T10:42:30;102372.50;;;2.22;58.15
73981;BME280;62348;51.412;5.436;2023-02-26T10:50:51;102386.03;;;2.28;58.30
73981;BME280;62348;51.412;5.436;2023-02-26T10:53:18;102382.53;;;2.28;60.23
73981;BME280;62348;51.412;5.436;2023-02-26T10:55:48;102385.66;;;2.31;57.99
73981;BME280;62348;51.412;5.436;2023-02-26T10:58:22;102377.84;;;2.38;57.79
73981;BME280;62348;51.412;5.436;2023-02-26T11:00:51;102383.84;;;2.40;56.91
73981;BME280;62348;51.412;5.436;2023-02-26T11:03:39;102372.28;;;2.56;56.63
73981;BME280;62348;51.412;5.436;2023-02-26T11:06:06;102381.00;;;2.50;56.83
73981;BME280;62348;51.412;5.436;2023-02-26T11:11:00;102383.84;;;2.57;55.66
73981;BME280;62348;51.412;5.436;2023-02-26T11:13:28;102381.28;;;2.63;55.49
73981;BME280;62348;51.412;5.436;2023-02-26T11:15:57;102385.81;;;2.63;55.48
73981;BME280;62348;51.412;5.436;2023-02-26T11:18:27;102383.31;;;2.69;54.41
73981;BME280;62348;51.412;5.436;2023-02-26T11:20:56;102382.63;;;2.67;56.53
73981;BME280;62348;51.412;5.436;2023-02-26T11:23:26;102386.63;;;2.71;55.04
73981;BME280;62348;51.412;5.436;2023-02-26T11:26:19;102383.78;;;2.81;55.73
73981;BME280;62348;51.412;5.436;2023-02-26T11:28:53;102383.41;;;2.84;54.15
73981;BME280;62348;51.412;5.436;2023-02-26T11:31:22;102387.44;;;2.88;54.39
73981;BME280;62348;51.412;5.436;2023-02-26T11:33:50;102384.41;;;2.91;52.80
73981;BME280;62348;51.412;5.436;2023-02-26T11:36:20;102389.25;;;2.96;51.85
73981;BME280;62348;51.412;5.436;2023-02-26T11:38:54;102384.19;;;3.01;52.80
73981;BME280;62348;51.412;5.436;2023-02-26T11:41:21;102389.25;;;2.96;52.97
73981;BME280;62348;51.412;5.436;2023-02-26T11:46:46;102375.03;;;2.96;52.74
73981;BME280;62348;51.412;5.436;2023-02-26T11:49:16;102381.53;;;3.01;51.71
73981;BME280;62348;51.412;5.436;2023-02-26T11:51:45;102379.22;;;2.98;52.64
73981;BME280;62348;51.412;5.436;2023-02-26T11:54:23;102380.84;;;2.99;52.05
73981;BME280;62348;51.412;5.436;2023-02-26T11:56:49;102379.50;;;3.03;50.60
73981;BME280;62348;51.412;5.436;2023-02-26T11:59:18;102379.00;;;3.08;50.18
73981;BME280;62348;51.412;5.436;2023-02-26T12:01:44;102374.47;;;3.08;49.10
73981;BME280;62348;51.412;5.436;2023-02-26T12:04:11;102379.81;;;3.08;49.24
73981;BME280;62348;51.412;5.436;2023-02-26T12:06:37;102384.19;;;3.09;50.16
73981;BME280;62348;51.412;5.436;2023-02-26T12:09:04;102381.47;;;3.18;50.87
73981;BME280;62348;51.412;5.436;2023-02-26T12:11:59;102385.28;;;3.23;52.29
73981;BME280;62348;51.412;5.436;2023-02-26T12:14:32;102377.22;;;3.31;49.41
73981;BME280;62348;51.412;5.436;2023-02-26T12:22:50;102394.50;;;3.21;50.01
73981;BME280;62348;51.412;5.436;2023-02-26T12:28:12;102381.78;;;3.23;49.08
73981;BME280;62348;51.412;5.436;2023-02-26T12:31:15;102387.78;;;3.25;50.48
73981;BME280;62348;51.412;5.436;2023-02-26T12:41:38;102373.53;;;3.32;50.51
73981;BME280;62348;51.412;5.436;2023-02-26T12:44:36;102380.75;;;3.32;50.17
73981;BME280;62348;51.412;5.436;2023-02-26T12:47:31;102377.88;;;3.33;50.05
73981;BME280;62348;51.412;5.436;2023-02-26T12:50:08;102378.53;;;3.36;49.44
73981;BME280;62348;51.412;5.436;2023-02-26T13:00:15;102370.66;;;3.42;49.73
73981;BME280;62348;51.412;5.436;2023-02-26T13:06:06;102375.81;;;3.44;49.10
73981;BME280;62348;51.412;5.436;2023-02-26T13:19:49;102378.09;;;3.55;48.02
73981;BME280;62348;51.412;5.436;2023-02-26T13:22:24;102366.03;;;3.59;46.15
73981;BME280;62348;51.412;5.436;2023-02-26T13:27:45;102379.47;;;3.51;46.42
73981;BME280;62348;51.412;5.436;2023-02-26T13:32:38;102372.13;;;3.45;47.13
73981;BME280;62348;51.412;5.436;2023-02-26T13:35:27;102374.63;;;3.46;48.03
73981;BME280;62348;51.412;5.436;2023-02-26T13:37:55;102373.97;;;3.44;47.25
73981;BME280;62348;51.412;5.436;2023-02-26T13:40:46;102377.13;;;3.48;48.65
73981;BME280;62348;51.412;5.436;2023-02-26T13:51:49;102381.06;;;3.60;47.81
73981;BME280;62348;51.412;5.436;2023-02-26T14:02:00;102373.50;;;3.64;49.58
73981;BME280;62348;51.412;5.436;2023-02-26T14:05:09;102365.31;;;3.65;49.66
73981;BME280;62348;51.412;5.436;2023-02-26T14:08:07;102368.16;;;3.64;49.62
73981;BME280;62348;51.412;5.436;2023-02-26T14:10:53;102376.81;;;3.74;48.85
73981;BME280;62348;51.412;5.436;2023-02-26T14:13:32;102372.34;;;3.66;47.49
73981;BME280;62348;51.412;5.436;2023-02-26T14:16:19;102374.53;;;3.63;48.87
73981;BME280;62348;51.412;5.436;2023-02-26T14:23:59;102374.22;;;3.58;47.77
73981;BME280;62348;51.412;5.436;2023-02-26T14:26:27;102371.22;;;3.61;47.67
73981;BME280;62348;51.412;5.436;2023-02-26T14:29:21;102365.16;;;3.67;49.53
73981;BME280;62348;51.412;5.436;2023-02-26T14:34:33;102369.31;;;3.69;47.75
73981;BME280;62348;51.412;5.436;2023-02-26T14:37:03;102371.50;;;3.66;47.67
73981;BME280;62348;51.412;5.436;2023-02-26T14:39:56;102368.47;;;3.69;49.21
73981;BME280;62348;51.412;5.436;2023-02-26T14:42:52;102367.59;;;3.77;48.17
73981;BME280;62348;51.412;5.436;2023-02-26T14:45:35;102371.63;;;3.72;47.68
73981;BME280;62348;51.412;5.436;2023-02-26T14:48:07;102365.97;;;3.67;47.41
73981;BME280;62348;51.412;5.436;2023-02-26T14:59:29;102357.22;;;3.74;48.60
73981;BME280;62348;51.412;5.436;2023-02-26T15:10:26;102374.78;;;3.76;48.92
73981;BME280;62348;51.412;5.436;2023-02-26T15:15:56;102382.81;;;3.76;49.37
73981;BME280;62348;51.412;5.436;2023-02-26T15:18:33;102375.31;;;3.71;49.54
73981;BME280;62348;51.412;5.436;2023-02-26T15:21:21;102379.00;;;3.70;48.88
73981;BME280;62348;51.412;5.436;2023-02-26T15:23:52;102375.69;;;3.68;48.24
73981;BME280;62348;51.412;5.436;2023-02-26T15:26:22;102374.16;;;3.66;47.94
73981;BME280;62348;51.412;5.436;2023-02-26T15:28:49;102372.03;;;3.61;48.22
73981;BME280;62348;51.412;5.436;2023-02-26T15:31:19;102375.72;;;3.60;47.84
73981;BME280;62348;51.412;5.436;2023-02-26T15:33:47;102379.41;;;3.59;48.88
73981;BME280;62348;51.412;5.436;2023-02-26T15:36:16;102376.34;;;3.62;48.50
73981;BME280;62348;51.412;5.436;2023-02-26T15:39:00;102388.91;;;3.62;49.64
73981;BME280;62348;51.412;5.436;2023-02-26T15:41:29;102379.88;;;3.63;48.98
73981;BME280;62348;51.412;5.436;2023-02-26T15:44:09;102375.53;;;3.62;49.46
73981;BME280;62348;51.412;5.436;2023-02-26T15:46:39;102377.97;;;3.71;49.81
73981;BME280;62348;51.412;5.436;2023-02-26T15:49:26;102378.22;;;3.62;50.40
73981;BME280;62348;51.412;5.436;2023-02-26T15:51:54;102387.44;;;3.59;49.55
73981;BME280;62348;51.412;5.436;2023-02-26T15:54:23;102391.97;;;3.59;50.01
73981;BME280;62348;51.412;5.436;2023-02-26T15:56:49;102390.44;;;3.56;50.06
73981;BME280;62348;51.412;5.436;2023-02-26T15:59:18;102393.50;;;3.53;50.39
73981;BME280;62348;51.412;5.436;2023-02-26T16:01:47;102387.94;;;3.55;49.06